Time;durP1;ratioP1;P1;durP2;ratioP2;P2;SDS_P1;SDS_P2;PMS_P1;PMS_P2;Temp;Humidity;BMP_temperature;BMP_pressure;BME280_temperature;BME280_humidity;BME280_pressure;Samples;Min_cycle;Max_cycle;Signal;HPM_P1;HPM_P2
2022/11/18 00:01:31;;;;;;;22.65;13.25;;;1.90;99.90;;;1.81;91.97;99846.31;5014943;28;20190;-77
2022/11/18 00:04:00;;;;;;;30.90;15.52;;;1.90;99.90;;;1.77;91.71;99849.50;5014387;28;20217;-76
2022/11/18 00:06:30;;;;;;;26.08;13.55;;;1.90;99.90;;;1.84;91.28;99850.47;5014575;28;20213;-75
2022/11/18 00:09:01;;;;;;;21.17;13.88;;;1.90;99.90;;;1.88;91.56;99857.13;5021648;28;20572;-75
2022/11/18 00:14:21;;;;;;;18.15;12.98;;;1.90;99.90;;;1.83;90.59;99863.00;4995816;28;20186;-74
2022/11/18 00:16:53;;;;;;;30.02;14.43;;;1.90;99.90;;;1.73;90.37;99847.19;4995802;28;20193;-73
2022/11/18 00:19:25;;;;;;;21.23;12.85;;;1.90;99.90;;;1.66;90.08;99843.50;5010677;28;20759;-75
2022/11/18 00:21:54;;;;;;;25.77;16.33;;;1.80;99.90;;;1.71;90.33;99835.84;5013405;28;20201;-76
2022/11/18 00:24:37;;;;;;;23.15;16.15;;;1.80;99.90;;;1.72;89.80;99842.00;5022339;28;20193;-77
2022/11/18 00:27:05;;;;;;;23.92;14.45;;;1.80;99.90;;;1.74;89.11;99840.00;5021625;28;20198;-75
2022/11/18 00:29:34;;;;;;;24.35;16.80;;;1.80;99.90;;;1.74;88.67;99840.00;5018827;28;20189;-74
2022/11/18 00:32:04;;;;;;;21.30;14.93;;;;;;;1.76;88.34;99854.00;5015660;28;20269;-75
2022/11/18 00:34:32;;;;;;;24.42;14.82;;;;;;;1.75;88.04;99852.31;5013933;28;20197;-76
2022/11/18 00:37:01;;;;;;;23.83;14.45;;;;;;;1.75;88.23;99853.16;5018390;28;20197;-75
2022/11/18 00:39:30;;;;;;;21.65;12.80;;;;;;;1.76;87.98;99862.00;5014999;28;20217;-74
2022/11/18 00:44:47;;;;;;;27.08;17.25;;;1.80;99.90;;;1.82;87.56;99857.81;5014659;28;20540;-76
2022/11/18 00:47:15;;;;;;;28.08;14.48;;;1.90;99.90;;;1.79;86.69;99861.66;5013700;28;20186;-74
2022/11/18 00:49:44;;;;;;;27.80;16.08;;;1.90;99.90;;;1.75;86.56;99868.31;5020783;28;20275;-74
2022/11/18 00:52:13;;;;;;;23.42;13.60;;;1.80;99.90;;;1.69;86.08;99861.81;5021007;28;20209;-74
2022/11/18 00:54:41;;;;;;;30.83;15.32;;;1.80;99.90;;;1.72;86.58;99860.66;5019231;28;20365;-75
2022/11/18 00:57:12;;;;;;;21.08;14.60;;;1.80;99.90;;;1.66;86.59;99858.69;5020909;28;20205;-76
2022/11/18 00:59:40;;;;;;;17.25;10.40;;;1.70;99.90;;;1.62;85.91;99852.88;5028543;28;20201;-75
2022/11/18 01:02:09;;;;;;;30.23;17.35;;;1.70;99.90;;;1.60;86.17;99857.53;4997131;28;20284;-75
2022/11/18 01:04:38;;;;;;;18.73;12.05;;;1.70;99.90;;;1.55;86.06;99872.38;5016004;28;20206;-75
2022/11/18 01:07:06;;;;;;;17.35;12.15;;;1.70;99.90;;;1.54;86.13;99860.06;5030822;28;20193;-76
2022/11/18 01:09:35;;;;;;;22.20;13.15;;;1.60;99.90;;;1.46;86.16;99863.53;5026252;28;20607;-76
2022/11/18 01:14:52;;;;;;;19.77;12.70;;;1.60;99.90;;;1.44;86.57;99867.41;5018466;28;20277;-75
2022/11/18 01:17:20;;;;;;;26.05;14.48;;;1.50;99.90;;;1.37;86.98;99859.22;5021868;28;20256;-75
2022/11/18 01:19:49;;;;;;;23.88;14.88;;;1.50;99.90;;;1.42;86.75;99861.38;5020637;28;20214;-75
2022/11/18 01:22:18;;;;;;;22.92;13.65;;;1.50;99.90;;;1.40;86.67;99869.56;5014710;28;20289;-75
2022/11/18 01:24:46;;;;;;;25.73;16.02;;;1.50;99.90;;;1.39;86.24;99859.06;5027207;28;20745;-77
2022/11/18 01:27:15;;;;;;;23.20;11.45;;;1.40;99.90;;;1.33;86.49;99857.06;5014150;28;20190;-75
2022/11/18 01:29:44;;;;;;;25.02;14.50;;;1.40;99.90;;;1.36;86.45;99857.56;5021045;28;20244;-74
2022/11/18 01:32:14;;;;;;;23.83;15.27;;;1.50;99.90;;;1.30;86.31;99864.41;5020756;28;20218;-75
2022/11/18 01:34:52;;;;;;;22.67;13.30;;;1.40;99.90;;;1.32;85.92;99861.56;5031433;28;20193;-75
2022/11/18 01:37:21;;;;;;;23.38;11.77;;;1.40;99.90;;;1.26;86.37;99865.72;5021074;28;20662;-75
2022/11/18 01:39:50;;;;;;;23.00;15.65;;;1.40;99.90;;;1.29;87.04;99868.06;5014156;28;20189;-76
2022/11/18 01:42:32;;;;;;;15.80;10.82;;;1.40;99.90;;;1.25;86.30;99861.41;5016515;28;20222;-76
2022/11/18 01:45:26;;;;;;;24.83;15.73;;;1.40;99.90;;;1.24;86.76;99865.06;5004077;28;20186;-75
2022/11/18 01:48:05;;;;;;;20.02;14.13;;;1.30;99.90;;;1.20;86.18;99862.91;5016628;28;20170;-75
2022/11/18 01:50:36;;;;;;;24.05;14.20;;;1.30;99.90;;;1.15;86.63;99866.09;5021212;28;20185;-74
2022/11/18 01:53:14;;;;;;;19.48;12.82;;;1.30;99.90;;;1.15;86.63;99866.09;5031781;28;20551;-74
2022/11/18 01:55:48;;;;;;;22.15;15.05;;;1.30;99.90;;;1.14;86.94;99869.75;5016270;28;20205;-74
2022/11/18 01:58:34;;;;;;;25.92;15.00;;;1.30;99.90;;;1.23;86.33;99863.41;5016579;28;20179;-75
2022/11/18 02:01:06;;;;;;;20.60;13.43;;;1.30;99.90;;;1.11;86.27;99863.91;5016180;28;20688;-75
2022/11/18 02:03:37;;;;;;;18.75;12.48;;;1.20;99.90;;;1.10;86.86;99868.41;5028281;28;20232;-75
2022/11/18 02:06:09;;;;;;;16.08;10.95;;;1.20;99.90;;;1.12;86.14;99857.56;5019882;28;20194;-75
2022/11/18 02:08:40;;;;;;;16.77;11.70;;;1.20;99.90;;;1.13;86.38;99877.88;5028929;28;20189;-76
2022/11/18 02:11:49;;;;;;;19.27;12.57;;;1.20;99.90;;;1.13;86.52;99877.88;5024093;28;20569;-76
2022/11/18 02:14:05;;;;;;;21.23;13.50;;;1.20;99.90;;;1.07;86.51;99868.72;5022244;28;20248;-76
2022/11/18 02:16:58;;;;;;;26.33;14.32;;;1.20;99.90;;;1.07;86.55;99876.72;5034058;28;20177;-76
2022/11/18 02:20:21;;;;;;;24.98;14.73;;;1.20;99.90;;;1.07;86.83;99865.22;5014297;28;20202;-76
2022/11/18 02:23:45;;;;;;;18.92;12.05;;;1.20;99.90;;;1.07;86.43;99876.72;5054801;23;21242;-74
2022/11/18 02:26:42;;;;;;;16.88;13.20;;;1.20;99.90;;;1.03;86.79;99877.22;5053729;28;20196;-75
2022/11/18 02:29:21;;;;;;;22.35;13.30;;;1.20;99.90;;;1.07;86.57;99868.72;5057272;28;20189;-74
2022/11/18 02:31:58;;;;;;;21.77;12.40;;;1.20;99.90;;;1.11;86.46;99883.41;5053197;28;20264;-74
2022/11/18 02:34:40;;;;;;;22.95;15.13;;;1.20;99.90;;;1.04;86.39;99868.22;5050450;28;20213;-74
2022/11/18 02:37:20;;;;;;;24.23;14.73;;;1.20;99.90;;;1.08;86.56;99882.88;5019311;28;20202;-75
2022/11/18 02:39:57;;;;;;;21.08;12.63;;;1.20;99.90;;;1.12;86.32;99879.72;5027165;28;20583;-74
2022/11/18 02:42:31;;;;;;;29.83;16.23;;;1.20;99.90;;;1.09;86.45;99877.41;5045870;28;20201;-74
2022/11/18 02:45:06;;;;;;;20.25;13.45;;;1.20;99.90;;;0.97;86.73;99873.38;5052206;28;20181;-74
2022/11/18 02:47:38;;;;;;;14.88;11.40;;;1.10;99.90;;;0.92;87.35;99877.56;5035235;28;20190;-75
2022/11/18 02:50:13;;;;;;;24.88;12.45;;;1.00;99.90;;;0.83;87.84;99871.38;5033063;28;20221;-75
2022/11/18 02:52:45;;;;;;;19.63;11.02;;;1.00;99.90;;;0.83;87.05;99866.88;5037202;28;20212;-73
2022/11/18 02:55:16;;;;;;;23.10;15.85;;;1.00;99.90;;;0.79;87.70;99875.38;5033628;28;20182;-75
2022/11/18 02:57:46;;;;;;;19.38;13.25;;;0.90;99.90;;;0.82;87.70;99880.38;5016047;28;20190;-74
2022/11/18 03:00:18;;;;;;;20.80;15.70;;;1.00;99.90;;;0.73;87.73;99871.53;5009961;28;20265;-73
2022/11/18 03:02:49;;;;;;;20.10;13.20;;;0.90;99.90;;;0.70;88.61;99877.19;5008052;28;20220;-74
2022/11/18 03:05:30;;;;;;;27.05;16.58;;;0.90;99.90;;;0.73;88.78;99886.66;5035406;28;20299;-75
2022/11/18 03:08:08;;;;;;;27.00;14.18;;;0.90;99.90;;;0.72;89.15;99879.69;5022134;28;20281;-74
2022/11/18 03:10:57;;;;;;;22.80;15.10;;;0.80;99.90;;;0.75;89.12;99880.19;5019947;28;20677;-75
2022/11/18 03:13:35;;;;;;;23.33;15.43;;;0.90;99.90;;;0.77;88.67;99883.53;4996321;28;20225;-75
2022/11/18 03:16:14;;;;;;;18.88;11.93;;;0.80;99.90;;;0.76;89.01;99881.03;4995928;28;20183;-75
2022/11/18 03:18:52;;;;;;;25.73;15.27;;;0.90;99.90;;;0.67;89.36;99879.34;4995848;28;20178;-74
2022/11/18 03:21:31;;;;;;;26.63;15.13;;;0.80;99.90;;;0.67;89.34;99876.69;5021489;28;20590;-73
2022/11/18 03:24:10;;;;;;;25.17;15.55;;;0.80;99.90;;;0.70;89.16;99871.03;5018999;28;20222;-74
2022/11/18 03:26:45;;;;;;;21.15;13.73;;;0.80;99.90;;;0.60;89.20;99887.16;5034796;28;20197;-74
2022/11/18 03:29:23;;;;;;;24.08;14.32;;;0.80;99.90;;;0.44;90.40;99882.59;5034793;28;20753;-74
2022/11/18 03:31:59;;;;;;;27.88;13.88;;;;;;;0.47;89.98;99883.28;5017458;28;20687;-75
2022/11/18 03:34:34;;;;;;;22.08;15.10;;;;;;;0.42;90.81;99889.94;5034263;28;20219;-74
2022/11/18 03:37:08;;;;;;;20.90;16.42;;;0.70;99.90;;;0.55;91.19;99893.94;5018342;28;20720;-74
2022/11/18 03:39:43;;;;;;;23.50;15.15;;;;;;;0.49;90.75;99900.75;5033375;28;20193;-75
2022/11/18 03:42:19;;;;;;;32.17;17.55;;;;;;;0.44;90.38;99898.56;5010165;28;20197;-74
2022/11/18 03:44:52;;;;;;;25.63;16.25;;;;;;;0.40;90.30;99899.91;5004366;28;20244;-74
2022/11/18 03:47:27;;;;;;;30.13;19.30;;;;;;;0.44;90.15;99903.06;5014949;28;20200;-74
2022/11/18 03:50:00;;;;;;;33.33;18.40;;;;;;;0.42;89.98;99902.41;5035203;28;20177;-75
2022/11/18 03:52:33;;;;;;;25.88;15.05;;;;;;;0.41;90.00;99901.56;5038866;28;20221;-74
2022/11/18 03:55:10;;;;;;;26.15;14.55;;;;;;;0.39;89.87;99908.88;5040045;28;20181;-75
2022/11/18 03:57:46;;;;;;;29.98;16.98;;;;;;;0.39;90.71;99916.84;5036265;28;20219;-75
2022/11/18 04:00:19;;;;;;;26.27;15.35;;;;;;;0.36;91.04;99919.00;5028968;28;20194;-75
2022/11/18 04:02:51;;;;;;;24.20;15.70;;;;;;;0.29;91.59;99915.34;5012083;28;20219;-75
2022/11/18 04:05:20;;;;;;;34.05;18.30;;;;;;;0.35;91.84;99920.00;4998976;28;20182;-75
2022/11/18 04:07:56;;;;;;;32.80;17.65;;;;;;;0.27;92.58;99918.16;5026996;28;20200;-76
2022/11/18 04:10:35;;;;;;;29.40;14.55;;;;;;;0.24;92.75;99918.44;5032323;28;20188;-76
2022/11/18 04:13:09;;;;;;;30.52;18.27;;;;;;;0.22;93.88;99920.44;5018412;28;20209;-75
2022/11/18 04:15:40;;;;;;;32.38;19.88;;;;;;;0.23;94.55;99927.44;5020241;28;20240;-76
2022/11/18 04:18:13;;;;;;;30.98;17.83;;;;;;;0.15;94.62;99916.75;5019434;28;20232;-75
2022/11/18 04:20:42;;;;;;;34.80;17.77;;;;;;;0.16;94.19;99930.88;5026682;28;20200;-75
2022/11/18 04:23:12;;;;;;;33.50;18.05;;;;;;;0.17;94.91;99936.06;5032811;28;20221;-75
2022/11/18 04:25:41;;;;;;;33.65;18.45;;;;;;;0.12;95.28;99927.72;5033313;28;20201;-76
2022/11/18 04:28:11;;;;;;;32.72;20.15;;;;;;;0.17;95.13;99927.25;5012076;28;20212;-75
2022/11/18 04:30:40;;;;;;;28.05;17.35;;;;;;;0.08;95.37;99928.19;5014384;28;20189;-75
2022/11/18 04:33:10;;;;;;;29.60;16.58;;;;;;;0.08;95.89;99923.72;5029549;28;20209;-75
2022/11/18 04:35:39;;;;;;;32.30;16.95;;;;;;;0.14;95.54;99923.09;5012991;28;20225;-75
2022/11/18 04:38:08;;;;;;;33.47;16.20;;;;;;;0.10;95.50;99920.91;5013746;28;20221;-74
2022/11/18 04:40:37;;;;;;;40.15;19.48;;;;;;;0.06;95.67;99933.66;5027274;28;20189;-74
2022/11/18 04:43:06;;;;;;;36.72;19.65;;;;;;;0.03;95.07;99933.16;5028296;28;20209;-76
2022/11/18 04:45:34;;;;;;;38.65;20.70;;;;;;;0.08;95.60;99945.00;5030587;28;20197;-73
2022/11/18 04:48:03;;;;;;;36.20;19.10;;;;;;;0.14;94.57;99939.06;5023497;28;20194;-74
2022/11/18 04:50:34;;;;;;;33.53;17.23;;;;;;;0.13;95.03;99947.19;5013749;28;20194;-75
2022/11/18 04:53:03;;;;;;;34.38;17.60;;;;;;;0.04;94.91;99950.78;5014043;28;20224;-75
2022/11/18 04:55:31;;;;;;;36.80;23.10;;;;;;;0.05;95.91;99949.81;5010588;28;20558;-74
2022/11/18 04:58:00;;;;;;;32.97;18.67;;;;;;;0.06;95.73;99960.25;5024054;28;20260;-75
2022/11/18 05:00:29;;;;;;;31.27;16.58;;;;;;;0.07;95.87;99958.44;5014053;28;20196;-75
2022/11/18 05:02:58;;;;;;;34.60;16.00;;;;;;;0.05;96.14;99961.25;5013341;28;20213;-75
2022/11/18 05:05:27;;;;;;;33.03;17.40;;;;;;;0.13;95.81;99971.13;5023521;28;20189;-75
2022/11/18 05:07:57;;;;;;;31.05;18.20;;;;;;;0.08;96.23;99970.75;5003439;28;20226;-75
2022/11/18 05:10:26;;;;;;;33.15;18.13;;;;;;;0.10;95.96;99972.25;5019107;28;20178;-74
2022/11/18 05:12:54;;;;;;;32.42;18.80;;;;;;;0.06;95.28;99973.56;5013520;28;20206;-74
2022/11/18 05:15:23;;;;;;;35.13;19.73;;;;;;;0.10;95.12;99972.25;5017358;28;20245;-75
2022/11/18 05:17:52;;;;;;;36.55;19.70;;;;;;;0.06;94.88;99968.25;5017420;28;20194;-75
2022/11/18 05:20:21;;;;;;;34.35;18.63;;;;;;;0.11;94.79;99978.41;5000506;28;20218;-75
2022/11/18 05:22:50;;;;;;;27.50;16.27;;;;;;;0.14;94.19;99978.13;4997472;28;20219;-75
2022/11/18 05:25:20;;;;;;;33.30;18.75;;;;;;;0.14;93.72;99975.44;5001464;28;20190;-76
2022/11/18 05:27:49;;;;;;;32.75;16.67;;;;;;;0.18;93.37;99987.44;5023744;28;20201;-73
2022/11/18 05:30:18;;;;;;;34.50;17.95;;;;;;;0.18;92.44;99967.00;5010541;28;20186;-76
2022/11/18 05:32:47;;;;;;;28.80;19.80;;;;;;;0.14;92.12;99978.94;5021242;28;20716;-74
2022/11/18 05:35:16;;;;;;;25.30;15.65;;;;;;;0.22;90.57;99978.16;5036813;28;20200;-75
2022/11/18 05:37:45;;;;;;;32.13;19.40;;;;;;;0.15;90.31;99985.09;5037357;28;20255;-75
2022/11/18 05:40:14;;;;;;;32.33;18.08;;;;;;;0.11;89.79;99984.56;5022063;28;20273;-74
2022/11/18 05:45:30;;;;;;;30.80;16.52;;;;;;;0.17;89.95;99997.25;5029965;28;20621;-74
2022/11/18 05:47:59;;;;;;;34.53;19.52;;;;;;;0.17;88.83;100002.56;5022340;28;20186;-74
2022/11/18 05:50:28;;;;;;;25.38;14.35;;;;;;;0.06;88.60;100002.81;5035645;28;20185;-75
2022/11/18 05:52:57;;;;;;;27.25;14.43;;;;;;;-0.01;87.83;100004.47;5026241;28;20300;-74
2022/11/18 05:55:30;;;;;;;27.55;15.98;;;;;;;-0.02;87.92;100013.41;5032743;28;20197;-74
2022/11/18 05:58:00;;;;;;;23.67;14.80;;;;;;;-0.13;87.80;100011.84;5039808;28;20541;-75
2022/11/18 06:00:31;;;;;;;23.83;11.68;;;;;;;-0.15;87.53;100018.31;5032111;28;20725;-74
2022/11/18 06:03:00;;;;;;;28.75;15.02;;;;;;;-0.19;87.00;100025.75;5019440;28;20248;-73
2022/11/18 06:05:29;;;;;;;27.80;15.05;;;;;;;-0.16;87.08;100032.59;5032206;28;20201;-75
2022/11/18 06:07:59;;;;;;;19.30;13.05;;;;;;;-0.13;86.67;100032.28;5029918;28;20220;-75
2022/11/18 06:10:32;;;;;;;21.38;12.57;;;;;;;-0.14;86.33;100030.59;5038142;28;20200;-75
2022/11/18 06:13:06;;;;;;;16.35;12.07;;;;;;;-0.12;85.46;100032.13;5003105;28;20690;-75
2022/11/18 06:15:42;;;;;;;16.20;12.18;;;;;;;-0.13;84.70;100037.59;5042583;28;20205;-75
2022/11/18 06:18:19;;;;;;;25.45;13.77;;;;;;;-0.02;85.28;100040.03;5047615;28;20246;-74
2022/11/18 06:20:49;;;;;;;19.23;11.43;;;;;;;-0.02;84.88;100037.34;5046537;28;20189;-75
2022/11/18 06:23:18;;;;;;;19.02;15.05;;;;;;;-0.06;84.14;100046.63;5032789;28;20300;-75
2022/11/18 06:25:47;;;;;;;20.95;12.35;;;;;;;-0.14;83.47;100052.72;5043730;28;20297;-75
2022/11/18 06:28:19;;;;;;;20.30;13.13;;;0.60;99.90;;;-0.14;84.01;100046.56;5040232;28;20197;-75
2022/11/18 06:31:41;;;;;;;20.30;11.55;;;0.00;99.90;;;-0.15;83.47;100032.44;5012767;28;20686;-75
2022/11/18 06:34:09;;;;;;;21.02;11.95;;;0.00;99.90;;;-0.15;83.80;100055.53;5036690;28;20685;-74
2022/11/18 06:36:38;;;;;;;18.13;10.50;;;0.00;99.90;;;-0.12;82.75;100060.53;5030940;28;20198;-74
2022/11/18 06:39:08;;;;;;;22.02;14.05;;;0.00;99.90;;;-0.14;82.84;100067.84;5010658;28;20268;-74
2022/11/18 06:41:36;;;;;;;22.88;12.10;;;0.00;99.90;;;-0.10;81.85;100074.53;5024486;28;20198;-75
2022/11/18 06:44:05;;;;;;;19.27;10.25;;;0.00;99.90;;;-0.18;82.18;100067.31;5017212;28;20214;-73
2022/11/18 06:49:20;;;;;;;19.38;13.63;;;0.00;99.90;;;-0.06;82.05;100086.53;5020827;28;20196;-75
2022/11/18 06:51:49;;;;;;;20.25;11.75;;;0.00;99.90;;;-0.13;81.60;100080.97;5017063;28;20190;-75
2022/11/18 06:54:17;;;;;;;16.95;11.52;;;0.00;99.90;;;-0.12;82.14;100074.69;5012528;28;20640;-75
2022/11/18 06:56:46;;;;;;;20.88;11.02;;;0.00;99.90;;;-0.06;81.33;100073.25;5027739;28;20256;-73
2022/11/18 06:59:22;;;;;;;20.13;13.85;;;0.00;99.90;;;-0.12;80.71;100097.78;5006112;28;20204;-75
2022/11/18 07:01:52;;;;;;;14.73;10.18;;;0.00;99.90;;;-0.22;81.28;100111.16;5021612;28;20197;-75
2022/11/18 07:04:21;;;;;;;22.70;13.45;;;0.00;99.90;;;-0.20;80.47;100095.91;5020195;28;20228;-75
2022/11/18 07:06:49;;;;;;;15.07;10.88;;;-0.10;99.90;;;-0.22;80.49;100108.50;5019140;28;20189;-74
2022/11/18 07:09:18;;;;;;;16.65;11.45;;;-0.10;99.90;;;-0.16;80.53;100101.72;5025929;28;20584;-75
2022/11/18 07:11:47;;;;;;;16.35;10.45;;;0.00;99.90;;;-0.21;80.49;100102.19;4999555;28;20199;-75
2022/11/18 07:14:17;;;;;;;23.02;12.43;;;-0.10;99.90;;;-0.23;80.89;100111.28;4996561;28;20213;-75
2022/11/18 07:16:46;;;;;;;22.88;12.80;;;-0.10;99.90;;;-0.19;80.72;100107.34;4999664;28;20186;-76
2022/11/18 07:19:15;;;;;;;20.83;10.73;;;-0.10;99.90;;;-0.15;80.76;100098.94;5032843;28;20189;-76
2022/11/18 07:21:44;;;;;;;20.75;12.95;;;0.00;99.90;;;-0.19;80.22;100110.84;5021426;28;20218;-74
2022/11/18 07:24:15;;;;;;;19.48;11.25;;;0.00;99.90;;;-0.15;79.60;100106.06;5008881;28;20226;-73
2022/11/18 07:26:44;;;;;;;17.42;11.48;;;0.00;99.90;;;-0.19;79.76;100110.00;5007269;28;20550;-73
2022/11/18 07:29:12;;;;;;;21.42;11.80;;;-0.10;99.90;;;-0.12;79.51;100121.72;5015688;28;20186;-73
2022/11/18 07:31:42;;;;;;;24.33;13.55;;;0.00;99.90;;;-0.10;79.00;100122.41;5026015;28;20225;-76
2022/11/18 07:34:13;;;;;;;23.00;12.75;;;0.00;99.90;;;-0.19;79.04;100126.78;5035239;28;20212;-75
2022/11/18 07:36:42;;;;;;;25.23;12.88;;;0.00;99.90;;;-0.20;78.79;100127.81;5016319;28;20193;-75
2022/11/18 07:39:11;;;;;;;18.23;8.75;;;-0.10;99.90;;;-0.14;78.31;100142.28;5033371;28;20220;-74
2022/11/18 07:41:40;;;;;;;24.98;13.20;;;0.00;99.90;;;-0.10;78.49;100127.72;5035210;28;20185;-75
2022/11/18 07:44:12;;;;;;;23.75;12.70;;;0.00;99.90;;;-0.11;78.43;100134.03;5027276;28;20275;-75
2022/11/18 07:46:49;;;;;;;24.33;14.32;;;0.00;99.90;;;-0.13;78.44;100136.81;5034406;28;20181;-76
2022/11/18 07:49:19;;;;;;;23.52;14.23;;;0.00;99.90;;;-0.07;78.60;100133.56;5017418;28;20218;-75
2022/11/18 07:51:49;;;;;;;17.88;11.52;;;0.00;99.90;;;-0.01;77.86;100126.81;4997056;28;20217;-74
2022/11/18 07:54:19;;;;;;;20.80;13.75;;;0.10;99.90;;;-0.05;77.57;100147.53;4997293;28;20694;-74
2022/11/18 07:56:50;;;;;;;25.10;13.95;;;0.10;99.90;;;-0.10;78.08;100128.53;5007382;28;20676;-74
2022/11/18 07:59:19;;;;;;;26.38;14.23;;;0.00;99.90;;;0.00;77.36;100128.47;5020461;28;20197;-75
2022/11/18 08:01:52;;;;;;;26.58;14.60;;;0.10;99.90;;;-0.06;77.35;100139.72;5033631;28;20556;-74
2022/11/18 08:04:21;;;;;;;28.10;16.42;;;0.00;99.90;;;0.01;76.93;100146.09;4998410;28;20674;-75
2022/11/18 08:06:54;;;;;;;21.52;12.43;;;0.10;99.90;;;-0.11;76.61;100150.81;5026959;28;20185;-75
2022/11/18 08:09:23;;;;;;;23.00;13.30;;;0.10;99.90;;;-0.12;77.44;100145.66;5002393;28;20202;-75
2022/11/18 08:11:53;;;;;;;20.25;13.40;;;0.00;99.90;;;-0.04;77.09;100151.88;5030847;28;20236;-75
2022/11/18 08:14:23;;;;;;;16.48;11.30;;;0.00;99.90;;;0.10;77.12;100149.69;5003674;28;20642;-75
2022/11/18 08:16:54;;;;;;;23.75;12.55;;;0.10;99.90;;;0.05;76.06;100152.78;5014500;28;20186;-76
2022/11/18 08:19:24;;;;;;;24.55;13.10;;;0.20;99.90;;;-0.04;76.00;100159.00;4997281;28;20564;-75
2022/11/18 08:21:54;;;;;;;19.88;12.50;;;0.10;99.90;;;-0.16;76.31;100160.22;5003737;28;20201;-75
2022/11/18 08:24:24;;;;;;;23.33;15.13;;;;;;;-0.14;76.58;100166.22;5040700;23;20235;-79
2022/11/18 08:26:53;;;;;;;21.60;14.10;;;;;;;-0.14;76.66;100164.41;5038465;28;20224;-80
2022/11/18 08:29:22;;;;;;;21.85;13.65;;;0.00;99.90;;;-0.29;76.36;100167.75;5040720;28;20209;-78
2022/11/18 08:31:55;;;;;;;19.67;10.75;;;-0.10;99.90;;;-0.34;76.62;100165.56;5024813;28;20227;-80
2022/11/18 08:34:24;;;;;;;26.95;15.88;;;-0.10;99.90;;;-0.31;77.12;100167.06;5038889;28;20281;-78
2022/11/18 08:36:52;;;;;;;22.95;14.00;;;-0.20;99.90;;;-0.26;77.13;100164.78;5017912;28;20201;-78
2022/11/18 08:39:21;;;;;;;19.55;11.15;;;-0.10;99.90;;;-0.24;76.29;100168.13;5019085;28;20218;-80
2022/11/18 08:41:50;;;;;;;11.75;9.07;;;;;;;-0.35;76.37;100177.16;5033266;28;20174;-78
2022/11/18 08:44:19;;;;;;;14.32;11.02;;;;;;;-0.27;76.44;100179.06;5033915;28;20226;-80
2022/11/18 08:46:48;;;;;;;17.42;12.60;;;-0.10;99.90;;;-0.29;76.45;100181.06;5035429;28;20273;-79
2022/11/18 08:49:19;;;;;;;22.48;11.50;;;-0.20;99.90;;;-0.38;76.29;100197.88;5023378;28;20244;-79
2022/11/18 08:51:48;;;;;;;18.08;13.20;;;-0.20;99.90;;;-0.41;75.77;100184.88;5024878;28;20178;-80
2022/11/18 08:54:17;;;;;;;18.52;10.90;;;-0.20;99.90;;;-0.52;77.02;100186.75;5022459;28;20653;-79
2022/11/18 08:56:46;;;;;;;18.20;10.70;;;-0.30;99.90;;;-0.47;76.91;100207.56;5040413;28;20193;-78
2022/11/18 08:59:34;;;;;;;28.23;15.13;;;-0.30;99.90;;;-0.47;76.26;100203.09;5041059;28;20227;-81
2022/11/18 09:02:03;;;;;;;16.52;8.05;;;-0.30;99.90;;;-0.58;76.47;100219.22;5040549;28;20209;-80
2022/11/18 09:04:34;;;;;;;12.80;9.05;;;-0.40;99.90;;;-0.66;77.04;100224.47;5041265;28;20265;-81
2022/11/18 09:07:02;;;;;;;22.08;11.15;;;-0.40;99.90;;;-0.59;76.35;100211.44;5041381;28;20201;-79
2022/11/18 09:09:31;;;;;;;29.67;14.02;;;-0.40;99.90;;;-0.64;76.97;100214.53;5042042;28;20718;-79
2022/11/18 09:12:00;;;;;;;20.50;14.25;;;-0.40;99.90;;;-0.59;77.42;100220.25;5051313;28;20193;-78
2022/11/18 09:14:29;;;;;;;14.90;10.45;;;-0.40;99.90;;;-0.48;77.42;100233.31;5053544;28;20189;-78
2022/11/18 09:17:18;;;;;;;12.55;9.15;;;;;;;-0.50;77.16;100243.28;5037132;28;20190;-80
2022/11/18 09:19:49;;;;;;;16.02;9.25;;;;;;;-0.51;76.35;100230.97;5025703;28;20218;-79
2022/11/18 09:22:18;;;;;;;16.48;9.38;;;;;;;-0.42;76.30;100245.19;5023224;28;20192;-79
2022/11/18 09:24:47;;;;;;;21.20;10.15;;;;;;;-0.29;76.42;100244.84;5023859;28;20214;-79
2022/11/18 09:27:16;;;;;;;19.00;11.48;;;;;;;-0.19;76.19;100251.75;5033790;28;20194;-78
2022/11/18 09:29:46;;;;;;;16.85;9.38;;;;;;;-0.11;75.63;100261.69;5054430;28;20213;-79
2022/11/18 09:32:15;;;;;;;16.50;10.13;;;;;;;-0.13;75.63;100261.81;5055779;28;20220;-79
2022/11/18 09:34:44;;;;;;;15.70;9.93;;;;;;;-0.11;75.11;100267.84;5049972;28;20181;-79
2022/11/18 09:37:14;;;;;;;17.17;10.27;;;;;;;-0.20;75.44;100265.22;5048567;28;20189;-80
2022/11/18 09:39:43;;;;;;;19.90;11.80;;;;;;;-0.26;75.63;100271.97;5048015;28;20209;-79
2022/11/18 09:42:30;;;;;;;19.88;9.80;;;;;;;-0.28;75.06;100262.47;5044178;28;20198;-78
2022/11/18 09:45:10;;;;;;;17.58;10.10;;;;;;;-0.29;75.78;100260.81;5050569;28;20197;-79
2022/11/18 09:47:43;;;;;;;11.75;8.82;;;;;;;-0.24;75.35;100275.31;5047170;28;20182;-78
2022/11/18 09:50:15;;;;;;;12.98;9.15;;;;;;;-0.25;75.75;100271.00;5047786;28;20181;-78
2022/11/18 09:53:17;;;;;;;14.13;9.50;;;;;;;-0.21;75.68;100269.72;5048401;28;20193;-77
2022/11/18 09:55:47;;;;;;;8.80;5.82;;;;;;;-0.27;76.25;100274.78;5048355;28;20166;-79
2022/11/18 09:58:26;;;;;;;11.07;8.70;;;-0.40;99.90;;;-0.36;76.71;100278.31;5030927;28;20217;-78
2022/11/18 10:00:55;;;;;;;9.73;8.20;;;-0.10;99.90;;;-0.37;76.43;100282.78;5027739;28;20205;-79
2022/11/18 10:03:29;;;;;;;10.98;6.65;;;-0.20;99.90;;;-0.34;76.32;100273.69;5032673;28;20235;-78
2022/11/18 10:06:13;;;;;;;6.97;4.20;;;-0.20;99.90;;;-0.34;75.62;100284.34;5020099;28;20200;-79
2022/11/18 10:09:13;;;;;;;14.55;6.97;;;-0.20;99.90;;;-0.24;76.01;100293.09;5002747;28;20275;-79
2022/11/18 10:12:04;;;;;;;9.10;7.07;;;-0.10;99.90;;;-0.21;75.23;100285.66;5018602;28;20200;-79
2022/11/18 10:14:53;;;;;;;9.57;7.20;;;-0.10;99.90;;;-0.24;75.11;100287.78;5020239;28;20200;-79
2022/11/18 10:17:40;;;;;;;8.55;6.65;;;-0.10;99.90;;;-0.13;74.61;100292.88;5000291;28;20179;-78
2022/11/18 10:20:28;;;;;;;11.32;6.25;;;0.00;99.90;;;0.07;74.51;100283.81;4999261;28;20201;-78
2022/11/18 10:23:05;;;;;;;7.18;6.55;;;0.10;99.90;;;0.06;73.12;100287.47;4987738;28;20402;-78
2022/11/18 10:25:35;;;;;;;7.88;5.68;;;0.20;99.90;;;-0.05;72.46;100277.03;5018548;28;20333;-79
2022/11/18 10:28:18;;;;;;;9.10;7.25;;;0.20;99.90;;;-0.09;73.37;100291.59;5018652;28;20254;-79
2022/11/18 10:30:47;;;;;;;6.28;4.50;;;0.10;99.90;;;-0.04;72.85;100303.47;5018785;28;20171;-79
2022/11/18 10:33:34;;;;;;;7.55;6.10;;;0.10;99.90;;;-0.08;73.41;100291.47;5020429;28;20477;-79
2022/11/18 10:36:27;;;;;;;12.77;5.22;;;0.10;99.90;;;0.05;73.82;100298.28;5037929;28;20201;-80
2022/11/18 10:39:09;;;;;;;15.75;5.55;;;0.10;99.90;;;-0.02;72.28;100300.69;5027846;28;20498;-81
2022/11/18 10:41:48;;;;;;;8.02;6.30;;;0.10;99.90;;;0.03;72.61;100303.72;5031789;28;20178;-77
2022/11/18 10:44:35;;;;;;;11.55;7.20;;;0.10;99.90;;;0.24;72.36;100304.28;5045090;28;20200;-79
2022/11/18 10:47:28;;;;;;;5.63;4.50;;;0.30;99.90;;;0.20;71.48;100305.56;5051121;28;20204;-79
2022/11/18 10:50:00;;;;;;;8.20;4.82;;;0.40;99.90;;;0.07;71.87;100294.47;5011899;28;20206;-80
2022/11/18 10:52:30;;;;;;;8.77;6.15;;;0.20;99.90;;;0.12;72.44;100309.97;5019619;28;20285;-80
2022/11/18 10:55:23;;;;;;;7.70;5.28;;;0.20;99.90;;;0.14;72.07;100306.19;5030431;28;20200;-79
2022/11/18 10:58:00;;;;;;;7.43;4.18;;;0.30;99.90;;;0.28;71.68;100318.16;5024951;28;20232;-81
2022/11/18 11:00:46;;;;;;;7.03;5.38;;;0.30;99.90;;;0.25;71.49;100321.94;5039074;28;20264;-78
2022/11/18 11:03:39;;;;;;;6.65;4.85;;;0.40;99.90;;;0.31;71.35;100339.97;5030215;28;20212;-80
2022/11/18 11:06:36;;;;;;;6.38;5.68;;;0.40;99.90;;;0.21;71.82;100328.53;5022355;28;20205;-80
2022/11/18 11:09:10;;;;;;;12.25;6.70;;;0.40;99.90;;;0.30;72.04;100332.97;5039492;28;20225;-78
2022/11/18 11:11:43;;;;;;;9.75;6.00;;;0.40;99.90;;;0.09;72.12;100327.09;5041412;28;20220;-79
2022/11/18 11:14:23;;;;;;;10.00;6.93;;;0.40;99.90;;;0.12;72.80;100333.91;5029647;28;20221;-79
2022/11/18 11:17:01;;;;;;;12.82;6.20;;;0.30;99.90;;;0.13;72.55;100330.28;5027157;28;20209;-80